createdAt,value
2022-11-10T00:01:20.002Z,10.00
2022-11-10T00:03:50.296Z,9.90
2022-11-10T00:06:19.410Z,9.90
2022-11-10T00:08:47.591Z,9.90
2022-11-10T00:11:17.320Z,9.90
2022-11-10T00:14:03.150Z,9.80
2022-11-10T00:16:48.331Z,9.80
2022-11-10T00:19:16.304Z,9.80
2022-11-10T00:21:44.310Z,9.80
2022-11-10T00:24:12.396Z,9.80
2022-11-10T00:26:41.778Z,9.80
2022-11-10T00:29:09.904Z,9.70
2022-11-10T00:31:39.356Z,9.70
2022-11-10T00:34:08.250Z,9.70
2022-11-10T00:36:36.505Z,9.70
2022-11-10T00:39:04.783Z,9.70
2022-11-10T00:41:34.850Z,9.70
2022-11-10T00:44:04.450Z,9.70
2022-11-10T00:46:32.535Z,9.60
2022-11-10T00:49:00.528Z,9.60
2022-11-10T00:51:30.282Z,9.60
2022-11-10T00:53:58.385Z,9.60
2022-11-10T00:56:26.821Z,9.50
2022-11-10T00:58:54.812Z,9.50
2022-11-10T01:01:25.584Z,9.50
2022-11-10T01:03:54.769Z,9.50
2022-11-10T01:06:23.119Z,9.50
2022-11-10T01:08:51.465Z,9.50
2022-11-10T01:11:20.951Z,9.50
2022-11-10T01:13:50.592Z,9.50
2022-11-10T01:16:21.065Z,9.50
2022-11-10T01:18:52.946Z,9.50
2022-11-10T01:21:21.806Z,9.50
2022-11-10T01:23:50.446Z,9.50
2022-11-10T01:26:21.181Z,9.50
2022-11-10T01:28:49.788Z,9.50
2022-11-10T01:31:20.033Z,9.50
2022-11-10T01:33:48.476Z,9.50
2022-11-10T01:36:18.001Z,9.40
2022-11-10T01:38:46.301Z,9.40
2022-11-10T01:41:15.896Z,9.40
2022-11-10T01:43:43.956Z,9.40
2022-11-10T01:46:13.291Z,9.40
2022-11-10T01:48:46.647Z,9.50
2022-11-10T01:51:20.872Z,9.50
2022-11-10T01:53:52.878Z,9.50
2022-11-10T01:56:23.336Z,9.50
2022-11-10T01:58:56.328Z,9.60
2022-11-10T02:01:26.496Z,9.60
2022-11-10T02:03:57.489Z,9.60
2022-11-10T02:06:30.622Z,9.70
2022-11-10T02:08:59.526Z,9.60
2022-11-10T02:11:30.857Z,9.70
2022-11-10T02:13:59.761Z,9.60
2022-11-10T02:16:28.305Z,9.60
2022-11-10T02:18:56.298Z,9.60
2022-11-10T02:21:25.684Z,9.60
2022-11-10T02:23:54.733Z,9.60
2022-11-10T02:26:25.727Z,9.60
2022-11-10T02:28:53.663Z,9.60
2022-11-10T02:31:21.647Z,9.60
2022-11-10T02:33:49.705Z,9.60
2022-11-10T02:36:17.792Z,9.60
2022-11-10T02:38:47.141Z,9.70
2022-11-10T02:41:15.182Z,9.70
2022-11-10T02:43:43.375Z,9.70
2022-11-10T02:46:11.324Z,9.70
2022-11-10T02:48:39.384Z,9.70
2022-11-10T02:51:07.662Z,9.70
2022-11-10T02:53:35.678Z,9.60
2022-11-10T02:56:05.328Z,9.50
2022-11-10T02:58:33.348Z,9.40
2022-11-10T03:01:04.391Z,9.40
2022-11-10T03:03:32.418Z,9.30
2022-11-10T03:06:00.520Z,9.20
2022-11-10T03:08:28.796Z,9.20
2022-11-10T03:10:57.762Z,9.20
2022-11-10T03:13:40.229Z,9.20
2022-11-10T03:16:15.689Z,9.10
2022-11-10T03:18:43.842Z,9.00
2022-11-10T03:21:11.792Z,9.00
2022-11-10T03:23:39.862Z,9.00
2022-11-10T03:26:08.578Z,9.00
2022-11-10T03:28:37.976Z,9.00
2022-11-10T03:31:06.346Z,9.00
2022-11-10T03:33:34.385Z,9.00
2022-11-10T03:36:02.354Z,9.10
2022-11-10T03:38:30.434Z,9.10
2022-11-10T03:43:47.805Z,9.10
2022-11-10T03:46:19.284Z,9.10
2022-11-10T03:48:52.904Z,9.10
2022-11-10T03:51:21.826Z,9.10
2022-11-10T03:53:49.876Z,9.20
2022-11-10T03:56:17.956Z,9.20
2022-11-10T03:58:47.276Z,9.20
2022-11-10T04:01:15.329Z,9.20
2022-11-10T04:03:47.432Z,9.20
2022-11-10T04:06:35.761Z,9.20
2022-11-10T04:09:03.916Z,9.10
2022-11-10T04:11:50.358Z,9.10
2022-11-10T04:14:37.343Z,9.10
2022-11-10T04:17:05.699Z,9.00
2022-11-10T04:19:33.917Z,8.90
2022-11-10T04:22:01.891Z,8.80
2022-11-10T04:24:29.842Z,8.80
2022-11-10T04:26:57.826Z,8.70
2022-11-10T04:29:27.187Z,8.70
2022-11-10T04:31:55.196Z,8.70
2022-11-10T04:34:23.232Z,8.70
2022-11-10T04:36:51.221Z,8.60
2022-11-10T04:39:19.146Z,8.50
2022-11-10T04:41:47.818Z,8.50
2022-11-10T04:44:15.757Z,8.50
2022-11-10T04:46:45.550Z,8.50
2022-11-10T04:49:13.639Z,8.50
2022-11-10T04:51:41.676Z,8.50
2022-11-10T04:54:09.847Z,8.40
2022-11-10T04:56:37.859Z,8.40
2022-11-10T04:59:05.807Z,8.30
2022-11-10T05:01:33.799Z,8.30
2022-11-10T05:04:05.570Z,8.30
2022-11-10T05:06:33.659Z,8.30
2022-11-10T05:09:03.689Z,8.20
2022-11-10T05:11:31.659Z,8.20
2022-11-10T05:13:59.649Z,8.20
2022-11-10T05:16:27.609Z,8.10
2022-11-10T05:18:56.026Z,8.10
2022-11-10T05:21:25.467Z,8.10
2022-11-10T05:23:53.420Z,8.00
2022-11-10T05:26:21.390Z,7.90
2022-11-10T05:28:49.468Z,7.90
2022-11-10T05:31:17.456Z,7.90
2022-11-10T05:33:45.962Z,7.80
2022-11-10T05:36:13.978Z,7.80
2022-11-10T05:38:43.979Z,7.90
2022-11-10T05:41:12.667Z,7.90
2022-11-10T05:43:40.879Z,7.90
2022-11-10T05:46:09.019Z,7.90
2022-11-10T05:48:37.116Z,8.00
2022-11-10T05:51:05.376Z,8.00
2022-11-10T05:53:33.420Z,8.00
2022-11-10T05:56:02.950Z,8.00
2022-11-10T05:58:31.053Z,8.00
2022-11-10T06:00:59.217Z,8.00
2022-11-10T06:03:27.728Z,7.90
2022-11-10T06:05:57.033Z,7.90
2022-11-10T06:08:25.213Z,7.80
2022-11-10T06:10:53.661Z,7.90
2022-11-10T06:13:23.254Z,7.90
2022-11-10T06:15:51.548Z,7.90
2022-11-10T06:18:19.695Z,7.90
2022-11-10T06:20:48.243Z,7.90
2022-11-10T06:23:16.703Z,7.90
2022-11-10T06:25:45.639Z,7.90
2022-11-10T06:28:14.847Z,7.80
2022-11-10T06:30:44.419Z,7.80
2022-11-10T06:33:12.407Z,7.70
2022-11-10T06:35:40.477Z,7.70
2022-11-10T06:38:11.199Z,7.80
2022-11-10T06:40:39.346Z,7.80
2022-11-10T06:43:07.317Z,7.80
2022-11-10T06:45:35.290Z,7.80
2022-11-10T06:48:06.871Z,7.80
2022-11-10T06:50:35.134Z,7.80
2022-11-10T06:53:03.136Z,7.90
2022-11-10T06:55:31.463Z,7.90
2022-11-10T06:57:59.612Z,8.00
2022-11-10T07:00:29.010Z,8.00
2022-11-10T07:03:01.449Z,8.10
2022-11-10T07:05:31.751Z,8.20
2022-11-10T07:08:03.989Z,8.30
2022-11-10T07:10:32.010Z,8.40
2022-11-10T07:13:00.301Z,8.50
2022-11-10T07:15:28.441Z,8.50
2022-11-10T07:17:56.613Z,8.60
2022-11-10T07:20:26.077Z,8.60
2022-11-10T07:23:00.954Z,8.70
2022-11-10T07:25:30.079Z,8.70
2022-11-10T07:27:59.377Z,8.80
2022-11-10T07:30:27.791Z,8.80
2022-11-10T07:33:00.576Z,8.80
2022-11-10T07:35:29.109Z,8.80
2022-11-10T07:37:57.515Z,8.90
2022-11-10T07:40:26.821Z,8.90
2022-11-10T07:42:54.829Z,8.90
2022-11-10T07:45:23.099Z,9.00
2022-11-10T07:47:51.460Z,9.00
2022-11-10T07:50:20.150Z,9.00
2022-11-10T07:52:48.202Z,9.00
2022-11-10T07:55:16.717Z,9.00
2022-11-10T07:57:46.059Z,9.10
2022-11-10T08:00:18.366Z,9.10
2022-11-10T08:02:46.294Z,9.10
2022-11-10T08:05:14.341Z,9.10
2022-11-10T08:07:42.513Z,9.10
2022-11-10T08:10:11.133Z,9.10
2022-11-10T08:12:39.211Z,9.20
2022-11-10T08:15:09.871Z,9.20
2022-11-10T08:17:37.973Z,9.20
2022-11-10T08:20:08.859Z,9.20
2022-11-10T08:22:39.522Z,9.30
2022-11-10T08:25:08.601Z,9.30
2022-11-10T08:27:36.614Z,9.30
2022-11-10T08:30:05.176Z,9.40
2022-11-10T08:32:34.660Z,9.30
2022-11-10T08:35:02.816Z,9.30
2022-11-10T08:37:30.846Z,9.30
2022-11-10T08:39:59.152Z,9.30
2022-11-10T08:42:27.087Z,9.30
2022-11-10T08:44:55.148Z,9.40
2022-11-10T08:47:23.911Z,9.40
2022-11-10T08:49:53.316Z,9.50
2022-11-10T08:52:21.292Z,9.50
2022-11-10T08:54:49.347Z,9.60
2022-11-10T08:57:17.282Z,9.70
2022-11-10T08:59:45.354Z,9.70
2022-11-10T09:02:13.413Z,9.80
2022-11-10T09:04:41.471Z,9.80
2022-11-10T09:07:10.941Z,9.80
2022-11-10T09:09:38.905Z,9.70
2022-11-10T09:12:07.330Z,9.70
2022-11-10T09:14:35.328Z,9.60
2022-11-10T09:17:03.323Z,9.60
2022-11-10T09:19:31.318Z,9.60
2022-11-10T09:21:59.373Z,9.50
2022-11-10T09:24:31.563Z,9.40
2022-11-10T09:27:00.234Z,9.40
2022-11-10T09:29:28.260Z,9.50
2022-11-10T09:31:56.254Z,9.50
2022-11-10T09:34:24.201Z,9.60
2022-11-10T09:36:52.162Z,9.60
2022-11-10T09:39:20.178Z,9.60
2022-11-10T09:41:49.722Z,9.80
2022-11-10T09:44:23.219Z,9.90
2022-11-10T09:46:55.898Z,9.90
2022-11-10T09:49:33.471Z,10.10
2022-11-10T09:52:03.029Z,10.20
2022-11-10T09:54:40.221Z,10.30
2022-11-10T09:57:15.798Z,10.40
2022-11-10T09:59:44.950Z,10.60
2022-11-10T10:02:24.716Z,10.70
2022-11-10T10:05:43.747Z,10.70
2022-11-10T10:08:16.858Z,10.70
2022-11-10T10:10:49.276Z,10.90
2022-11-10T10:13:38.659Z,11.00
2022-11-10T10:16:17.109Z,11.10
2022-11-10T10:18:55.980Z,11.10
2022-11-10T10:21:46.383Z,11.10
2022-11-10T10:24:21.870Z,11.10
2022-11-10T10:26:52.886Z,11.20
2022-11-10T10:29:25.075Z,11.20
2022-11-10T10:31:53.965Z,11.20
2022-11-10T10:34:25.677Z,11.30
2022-11-10T10:36:53.635Z,11.30
2022-11-10T10:39:30.297Z,11.30
2022-11-10T10:41:59.454Z,11.40
2022-11-10T10:44:28.868Z,11.40
2022-11-10T10:46:58.963Z,11.40
2022-11-10T10:49:30.205Z,11.50
2022-11-10T10:52:07.121Z,11.50
2022-11-10T10:54:38.238Z,11.50
2022-11-10T10:57:19.348Z,11.50
2022-11-10T10:59:49.089Z,11.50
2022-11-10T11:02:27.503Z,11.50
2022-11-10T11:05:13.184Z,11.50
2022-11-10T11:07:44.069Z,11.50
2022-11-10T11:10:23.197Z,11.50
2022-11-10T11:12:51.254Z,11.50
2022-11-10T11:15:26.730Z,11.50
2022-11-10T11:17:59.974Z,11.40
2022-11-10T11:20:38.354Z,11.50
2022-11-10T11:23:19.645Z,11.50
2022-11-10T11:25:51.143Z,11.60
2022-11-10T11:28:26.655Z,11.70
2022-11-10T11:31:04.815Z,11.70
2022-11-10T11:33:39.386Z,11.80
2022-11-10T11:36:18.727Z,11.80
2022-11-10T11:38:54.688Z,11.90
2022-11-10T11:41:32.324Z,11.90
2022-11-10T11:44:21.840Z,12.00
2022-11-10T11:47:00.304Z,12.00
2022-11-10T11:49:47.178Z,12.00
2022-11-10T11:52:28.766Z,12.10
2022-11-10T11:55:14.074Z,12.10
2022-11-10T11:57:55.068Z,12.10
2022-11-10T12:00:23.580Z,12.20
2022-11-10T12:03:20.814Z,12.20
2022-11-10T12:05:59.158Z,12.30
2022-11-10T12:08:39.026Z,12.40
2022-11-10T12:11:16.023Z,12.40
2022-11-10T12:13:56.978Z,12.40
2022-11-10T12:16:28.542Z,12.40
2022-11-10T12:19:08.203Z,12.40
2022-11-10T12:21:46.506Z,12.50
2022-11-10T12:24:32.760Z,12.50
2022-11-10T12:27:09.625Z,12.50
2022-11-10T12:29:44.195Z,12.40
2022-11-10T12:32:20.011Z,12.40
2022-11-10T12:34:54.834Z,12.40
2022-11-10T12:37:32.000Z,12.40
2022-11-10T12:40:04.503Z,12.30
2022-11-10T12:42:34.269Z,12.40
2022-11-10T12:45:05.300Z,12.40
2022-11-10T12:47:40.361Z,12.40
2022-11-10T12:50:25.686Z,12.50
2022-11-10T12:52:57.690Z,12.50
2022-11-10T12:55:32.855Z,12.50
2022-11-10T12:58:01.622Z,12.50
2022-11-10T13:00:32.463Z,12.50
2022-11-10T13:03:01.126Z,12.50
2022-11-10T13:05:35.320Z,12.50
2022-11-10T13:08:17.667Z,12.50
2022-11-10T13:10:55.742Z,12.50
2022-11-10T13:13:25.049Z,12.60
2022-11-10T13:15:55.474Z,12.50
2022-11-10T13:18:27.263Z,12.50
2022-11-10T13:20:56.772Z,12.50
2022-11-10T13:23:27.513Z,12.50
2022-11-10T13:25:58.358Z,12.60
2022-11-10T13:29:05.539Z,12.60
2022-11-10T13:31:55.317Z,12.50
2022-11-10T13:34:32.013Z,12.50
2022-11-10T13:37:01.815Z,12.50
2022-11-10T13:39:35.140Z,12.50
2022-11-10T13:42:17.757Z,12.50
2022-11-10T13:44:47.650Z,12.50
2022-11-10T13:47:44.387Z,12.40
2022-11-10T13:50:30.799Z,12.40
2022-11-10T13:53:14.994Z,12.40
2022-11-10T13:55:53.346Z,12.40
2022-11-10T13:58:28.505Z,12.30
2022-11-10T14:01:23.372Z,12.30
2022-11-10T14:03:57.528Z,12.30
2022-11-10T14:06:38.973Z,12.20
2022-11-10T14:09:24.291Z,12.20
2022-11-10T14:11:56.301Z,12.20
2022-11-10T14:14:28.391Z,12.10
2022-11-10T14:16:57.387Z,12.00
2022-11-10T14:19:37.320Z,12.00
2022-11-10T14:22:15.417Z,12.00
2022-11-10T14:24:54.957Z,12.00
2022-11-10T14:27:29.177Z,11.80
2022-11-10T14:30:26.053Z,11.80
2022-11-10T14:33:03.345Z,11.70
2022-11-10T14:35:33.616Z,11.70
2022-11-10T14:38:02.905Z,11.60
2022-11-10T14:40:35.410Z,11.50
2022-11-10T14:43:05.920Z,11.50
2022-11-10T14:45:38.550Z,11.30
2022-11-10T14:48:19.730Z,11.10
2022-11-10T14:50:48.451Z,10.80
2022-11-10T14:53:21.577Z,10.60
2022-11-10T14:55:55.138Z,10.30
2022-11-10T14:58:27.234Z,10.10
2022-11-10T15:00:55.821Z,10.00
2022-11-10T15:03:36.324Z,9.80
2022-11-10T15:06:05.994Z,9.70
2022-11-10T15:08:34.385Z,9.50
2022-11-10T15:11:04.039Z,9.40
2022-11-10T15:13:43.566Z,9.30
2022-11-10T15:16:26.494Z,9.30
2022-11-10T15:18:57.376Z,9.20
2022-11-10T15:21:30.724Z,9.10
2022-11-10T15:24:01.959Z,9.10
2022-11-10T15:26:39.412Z,9.00
2022-11-10T15:29:08.030Z,8.90
2022-11-10T15:31:36.724Z,8.80
2022-11-10T15:34:06.421Z,8.70
2022-11-10T15:36:35.838Z,8.70
2022-11-10T15:39:06.348Z,8.60
2022-11-10T15:41:37.351Z,8.50
2022-11-10T15:44:20.545Z,8.40
2022-11-10T15:46:52.368Z,8.30
2022-11-10T15:49:24.390Z,8.20
2022-11-10T15:51:53.597Z,8.20
2022-11-10T15:54:24.387Z,8.20
2022-11-10T15:56:53.953Z,8.20
2022-11-10T15:59:21.965Z,8.10
2022-11-10T16:01:50.348Z,8.10
2022-11-10T16:04:18.538Z,8.10
2022-11-10T16:06:47.570Z,8.00
2022-11-10T16:09:15.547Z,8.00
2022-11-10T16:11:45.758Z,7.90
2022-11-10T16:14:17.888Z,7.80
2022-11-10T16:16:46.236Z,7.80
2022-11-10T16:19:14.457Z,7.70
2022-11-10T16:21:42.455Z,7.60
2022-11-10T16:24:10.465Z,7.60
2022-11-10T16:26:38.839Z,7.60
2022-11-10T16:29:12.287Z,7.60
2022-11-10T16:31:43.939Z,7.60
2022-11-10T16:34:14.780Z,7.60
2022-11-10T16:36:46.165Z,7.60
2022-11-10T16:39:15.986Z,7.50
2022-11-10T16:41:47.143Z,7.50
2022-11-10T16:44:16.771Z,7.50
2022-11-10T16:46:50.533Z,7.40
2022-11-10T16:49:26.053Z,7.40
2022-11-10T16:51:54.061Z,7.40
2022-11-10T16:54:23.956Z,7.40
2022-11-10T16:56:54.129Z,7.40
2022-11-10T16:59:24.893Z,7.40
2022-11-10T17:01:59.830Z,7.40
2022-11-10T17:04:33.590Z,7.40
2022-11-10T17:07:01.638Z,7.40
2022-11-10T17:09:32.371Z,7.30
2022-11-10T17:12:00.789Z,7.40
2022-11-10T17:14:28.859Z,7.80
2022-11-10T17:17:10.140Z,8.10
2022-11-10T17:19:38.271Z,8.20
2022-11-10T17:22:08.874Z,8.10
2022-11-10T17:24:40.796Z,7.90
2022-11-10T17:27:11.163Z,7.70
2022-11-10T17:29:42.343Z,7.50
2022-11-10T17:32:11.762Z,7.30
2022-11-10T17:34:40.173Z,7.30
2022-11-10T17:37:12.052Z,7.20
2022-11-10T17:39:40.873Z,7.20
2022-11-10T17:42:13.390Z,7.20
2022-11-10T17:44:41.494Z,7.10
2022-11-10T17:47:10.838Z,7.10
2022-11-10T17:49:38.879Z,7.10
2022-11-10T17:52:14.238Z,7.10
2022-11-10T17:54:47.407Z,7.00
2022-11-10T17:57:15.530Z,7.00
2022-11-10T17:59:43.605Z,7.00
2022-11-10T18:02:15.351Z,7.00
2022-11-10T18:04:52.490Z,7.00
2022-11-10T18:07:20.772Z,6.90
2022-11-10T18:09:48.922Z,6.90
2022-11-10T18:12:17.343Z,7.20
2022-11-10T18:14:48.333Z,7.50
2022-11-10T18:17:18.964Z,7.50
2022-11-10T18:19:47.084Z,7.40
2022-11-10T18:22:15.155Z,7.30
2022-11-10T18:24:43.539Z,7.20
2022-11-10T18:27:11.711Z,7.10
2022-11-10T18:29:40.494Z,7.10
2022-11-10T18:32:08.602Z,7.00
2022-11-10T18:34:38.142Z,7.00
2022-11-10T18:37:06.274Z,7.00
2022-11-10T18:39:34.284Z,7.00
2022-11-10T18:42:02.459Z,7.00
2022-11-10T18:44:30.899Z,7.00
2022-11-10T18:46:58.873Z,7.00
2022-11-10T18:49:27.494Z,7.00
2022-11-10T18:51:57.031Z,6.90
2022-11-10T18:54:25.790Z,6.90
2022-11-10T18:56:54.106Z,6.80
2022-11-10T18:59:22.280Z,6.80
2022-11-10T19:01:50.990Z,6.80
2022-11-10T19:04:19.123Z,6.80
2022-11-10T19:06:47.207Z,6.70
2022-11-10T19:09:16.732Z,6.80
2022-11-10T19:11:44.902Z,6.80
2022-11-10T19:14:12.927Z,6.70
2022-11-10T19:16:40.988Z,6.70
2022-11-10T19:19:10.704Z,6.60
2022-11-10T19:21:38.757Z,6.70
2022-11-10T19:24:07.334Z,6.60
2022-11-10T19:26:36.893Z,6.60
2022-11-10T19:29:05.432Z,6.60
2022-11-10T19:31:36.588Z,6.50
2022-11-10T19:34:04.609Z,6.50
2022-11-10T19:36:32.704Z,6.40
2022-11-10T19:39:01.099Z,6.40
2022-11-10T19:41:30.509Z,6.40
2022-11-10T19:44:00.449Z,6.50
2022-11-10T19:46:32.273Z,6.60
2022-11-10T19:49:00.334Z,6.90
2022-11-10T19:51:28.607Z,7.10
2022-11-10T19:53:58.951Z,7.40
2022-11-10T19:56:31.474Z,7.70
2022-11-10T19:59:03.175Z,8.10
2022-11-10T20:01:35.383Z,8.30
2022-11-10T20:04:04.297Z,8.60
2022-11-10T20:06:32.447Z,8.90
2022-11-10T20:09:00.546Z,9.00
2022-11-10T20:11:28.736Z,9.00
2022-11-10T20:13:59.059Z,9.10
2022-11-10T20:16:28.554Z,9.00
2022-11-10T20:18:56.622Z,9.10
2022-11-10T20:21:24.642Z,9.00
2022-11-10T20:23:56.710Z,8.80
2022-11-10T20:26:25.810Z,8.50
2022-11-10T20:28:54.158Z,8.20
2022-11-10T20:31:24.624Z,7.90
2022-11-10T20:33:55.782Z,7.60
2022-11-10T20:36:26.032Z,7.50
2022-11-10T20:38:55.955Z,7.30
2022-11-10T20:41:27.255Z,7.20
2022-11-10T20:43:56.006Z,7.10
2022-11-10T20:46:48.673Z,7.00
2022-11-10T20:49:14.084Z,6.90
2022-11-10T20:51:49.540Z,6.70
2022-11-10T20:54:17.652Z,6.70
2022-11-10T20:56:45.802Z,6.70
2022-11-10T20:59:14.474Z,6.70
2022-11-10T21:01:42.535Z,6.60
2022-11-10T21:04:10.924Z,6.60
2022-11-10T21:06:40.845Z,6.60
2022-11-10T21:09:09.017Z,6.50
2022-11-10T21:11:54.443Z,6.40
2022-11-10T21:14:22.948Z,6.30
2022-11-10T21:16:51.026Z,6.20
2022-11-10T21:19:19.071Z,6.10
2022-11-10T21:21:49.397Z,6.10
2022-11-10T21:24:17.471Z,6.10
2022-11-10T21:26:45.546Z,6.10
2022-11-10T21:29:13.558Z,6.00
2022-11-10T21:31:41.875Z,5.90
2022-11-10T21:34:10.895Z,5.90
2022-11-10T21:36:39.058Z,5.90
2022-11-10T21:39:08.727Z,5.90
2022-11-10T21:41:36.851Z,5.90
2022-11-10T21:44:05.126Z,5.90
2022-11-10T21:46:33.329Z,5.90
2022-11-10T21:49:07.088Z,6.10
2022-11-10T21:51:39.533Z,6.10
2022-11-10T21:54:12.212Z,6.20
2022-11-10T21:56:40.382Z,6.20
2022-11-10T21:59:08.465Z,6.20
2022-11-10T22:01:36.548Z,6.40
2022-11-10T22:04:04.943Z,6.50
2022-11-10T22:06:47.129Z,6.50
2022-11-10T22:09:36.870Z,6.40
2022-11-10T22:12:22.466Z,6.40
2022-11-10T22:15:07.984Z,6.40
2022-11-10T22:17:53.512Z,6.30
2022-11-10T22:20:21.537Z,6.10
2022-11-10T22:22:50.255Z,6.10
2022-11-10T22:25:19.723Z,6.00
2022-11-10T22:27:47.840Z,5.90
2022-11-10T22:30:15.997Z,5.80
2022-11-10T22:32:44.034Z,5.80
2022-11-10T22:35:33.062Z,5.90
2022-11-10T22:38:05.604Z,5.80
2022-11-10T22:40:54.986Z,5.80
2022-11-10T22:43:40.628Z,5.80
2022-11-10T22:46:08.660Z,5.80
2022-11-10T22:48:37.311Z,5.80
2022-11-10T22:51:05.479Z,5.70
2022-11-10T22:53:38.290Z,5.60
2022-11-10T22:56:08.087Z,5.60
2022-11-10T22:58:36.079Z,5.60
2022-11-10T23:01:08.697Z,5.60
2022-11-10T23:03:37.494Z,5.70
2022-11-10T23:06:06.405Z,5.70
2022-11-10T23:08:35.397Z,5.70
2022-11-10T23:11:05.516Z,5.80
2022-11-10T23:13:36.124Z,5.80
2022-11-10T23:16:05.761Z,5.80
2022-11-10T23:18:33.884Z,5.80
2022-11-10T23:21:03.748Z,5.80
2022-11-10T23:23:34.125Z,5.70
2022-11-10T23:26:04.106Z,5.60
2022-11-10T23:28:35.268Z,5.60
2022-11-10T23:31:05.155Z,5.50
2022-11-10T23:33:33.793Z,5.40
2022-11-10T23:36:03.084Z,5.40
2022-11-10T23:38:32.586Z,5.30
2022-11-10T23:41:01.450Z,5.20
2022-11-10T23:43:29.993Z,5.20
2022-11-10T23:46:06.945Z,5.20
2022-11-10T23:48:35.977Z,5.10
2022-11-10T23:51:04.802Z,5.00
2022-11-10T23:53:33.124Z,4.90
2022-11-10T23:56:03.255Z,4.90
2022-11-10T23:58:31.696Z,4.90
